Terminal Aerodrome Forecast
Issued by NWS

Home | Current Version | Previous Version | Text Only | Print | Product List | Glossary On
Versions: 1 2 3 4 5 6 7 8 9 10 11 12 13 14
000
FTUS42 KTBW 041720
TAFRSW
TAF
KRSW 041720Z 0418/0518 09015G25KT P6SM SCT050 BKN250
      TEMPO 0418/0422 BKN050
     FM042300 07013KT P6SM SCT050 BKN250
     FM050200 07007KT P6SM BKN250
     FM051400 08013KT P6SM SCT050 BKN250=

USA.gov is the U.S. government's official web portal to all federal, state and local government web resources and services.